Latest Weather Observations for Kingfish B

IDV60801

Issued at 6:31 am EST Friday 28 August 2015 (issued every 30 minutes, with the page automatically refreshed every 10 minutes)

About weather observations | Map of weather stations | Latest weather observations for VIC | Other Formats
Station Details ID: 400139 Name: KINGFISH B (PLATFORM) Lat: -38.60 Lon: 148.19 Height: 31.4 m
Data from the previous 72 hours. | See also: Recent months for locations in Victoria
Date/Time
EST
Temp
°C
App
Temp
°C
Dew
Point
Rel
Hum
%
Delta-T
°C
Wind Press
QNH
hPa
Press
MSL
hPa
Rain
since 9 am
mm
Dir
 
Spd
km/h
Gust
km/h
Spd
kts
Gust
kts
28/05:20am 11.7 5.4 9.7 87 1.0 SSE 33 39 18 21 1020.8 - -
28/05:10am 11.7 5.6 9.8 88 1.0 SSE 32 41 17 22 1020.7 - -
28/05:00am 11.6 5.3 9.7 88 1.0 SSE 33 41 18 22 1020.7 - -
28/04:50am 11.6 4.5 9.6 87 1.0 SSE 37 44 20 24 1020.7 - -
28/04:40am 11.7 4.3 9.8 88 1.0 S 39 44 21 24 1020.6 - -
28/04:30am 11.8 4.4 9.8 87 1.0 S 39 44 21 24 1020.5 - -
28/04:20am 11.8 4.7 9.7 87 1.1 SSE 37 43 20 23 1020.3 - -
28/04:10am 11.9 4.9 9.9 87 1.0 SSE 37 43 20 23 1020.2 - -
28/04:00am 12.0 5.4 9.9 87 1.1 SSE 35 46 19 25 1019.9 - -
28/03:50am 12.1 5.1 9.9 86 1.1 S 37 46 20 25 1019.9 - -
28/03:40am 12.1 4.7 9.8 86 1.2 S 39 46 21 25 1019.8 - -
28/03:30am 12.2 4.4 9.8 85 1.2 SSE 41 46 22 25 1019.7 - -
28/03:20am 12.2 4.8 9.8 85 1.2 SSE 39 48 21 26 1019.5 - -
28/03:10am 12.2 4.8 9.7 85 1.3 SSE 39 48 21 26 1019.5 - -
28/03:00am 12.2 5.1 9.7 85 1.3 SSE 37 44 20 24 1019.4 - -
28/02:50am 12.4 4.6 9.8 84 1.3 S 41 46 22 25 1019.3 - -
28/02:40am 12.3 4.9 9.8 85 1.3 S 39 44 21 24 1019.2 - -
28/02:30am 12.2 4.8 9.7 85 1.3 S 39 44 21 24 1019.2 - -
28/02:20am 12.2 4.4 9.7 85 1.3 SSE 41 46 22 25 1019.2 - -
28/02:10am 12.2 5.2 9.8 85 1.2 S 37 43 20 23 1019.1 - -
28/02:00am 12.2 5.2 9.8 85 1.2 S 37 43 20 23 1019.1 - -
28/01:50am 12.2 4.8 9.9 86 1.2 S 39 44 21 24 1019.2 - -
28/01:40am 12.2 4.4 9.9 86 1.2 S 41 44 22 24 1019.3 - -
28/01:30am 12.4 4.7 10.0 85 1.2 S 41 46 22 25 1019.3 - -
28/01:20am 12.4 5.4 10.1 86 1.2 S 37 43 20 23 1019.3 - -
28/01:10am 12.4 5.5 10.2 86 1.1 S 37 43 20 23 1019.3 - -
28/01:00am 12.4 4.7 10.3 87 1.1 S 41 44 22 24 1019.4 - -
28/12:40am 12.4 4.4 10.3 87 1.1 S 43 48 23 26 1019.4 - -
28/12:30am 12.6 5.8 10.6 88 1.0 S 37 44 20 24 1019.2 - -
28/12:20am 12.7 5.9 10.7 88 1.0 S 37 43 20 23 1019.2 - -
28/12:10am 12.7 5.9 10.8 88 1.0 S 37 41 20 22 1019.2 - -
28/12:00am 12.7 5.6 10.8 88 1.0 S 39 44 21 24 1019.2 - -
 
Date/Time
EST
Temp
°C
App
Temp
°C
Dew
Point
Rel
Hum
%
Delta-T
°C
Wind Press
QNH
hPa
Press
MSL
hPa
Rain
since 9 am
mm
Dir
 
Spd
km/h
Gust
km/h
Spd
kts
Gust
kts
27/11:50pm 12.7 5.6 10.9 89 0.9 S 39 46 21 25 1019.2 - -
27/11:40pm 12.7 6.4 11.0 89 0.9 S 35 41 19 22 1019.0 - -
27/11:30pm 12.6 6.3 10.9 89 0.9 S 35 41 19 22 1019.0 - -
27/11:20pm 12.5 6.5 10.8 89 0.9 S 33 39 18 21 1019.0 - -
27/11:10pm 12.5 5.7 10.7 89 0.9 S 37 43 20 23 1019.0 - -
27/10:20pm 13.0 7.6 10.8 86 1.2 S 30 35 16 19 1018.8 - -
27/10:10pm 13.0 7.6 10.8 86 1.2 S 30 35 16 19 1018.8 - -
27/10:00pm 12.9 7.1 10.8 87 1.1 S 32 37 17 20 1018.9 - -
27/09:50pm 12.9 6.9 10.8 87 1.1 S 33 39 18 21 1019.0 - -
27/09:40pm 13.0 7.0 10.7 86 1.2 S 33 41 18 22 1019.0 - -
27/09:30pm 13.0 6.9 10.6 85 1.3 S 33 39 18 21 1018.9 - -
27/09:20pm 13.0 7.0 10.7 86 1.2 SSE 33 37 18 20 1018.9 - -
27/09:10pm 13.1 7.4 11.0 87 1.1 SSE 32 35 17 19 1018.9 - -
27/09:00pm 13.1 7.8 11.1 88 1.1 S 30 35 16 19 1018.9 - -
27/08:50pm 13.1 8.2 11.3 89 1.0 S 28 33 15 18 1018.9 - -
27/08:40pm 13.0 8.1 11.3 89 0.9 S 28 33 15 18 1018.9 - -
27/08:30pm 12.7 8.1 11.1 90 0.8 S 26 33 14 18 1018.8 - -
27/08:20pm 12.1 10.2 10.5 90 0.8 SSE 11 17 6 9 1018.5 - -
27/08:10pm 11.6 9.6 10.0 90 0.8 SSE 11 17 6 9 1018.5 - -
27/08:00pm 11.7 8.5 10.0 89 0.9 SSE 17 24 9 13 1018.7 - -
27/07:50pm 12.2 9.2 10.5 89 0.9 SSE 17 28 9 15 1018.6 - -
27/07:40pm 12.1 11.9 10.5 90 0.8 SSW 2 9 1 5 1018.4 - -
27/07:30pm 11.9 11.3 10.3 90 0.8 SSW 4 9 2 5 1018.3 - -
27/07:20pm 11.8 10.8 10.2 90 0.8 SSW 6 11 3 6 1018.3 - -
27/07:10pm 12.1 10.9 10.4 89 0.9 SSW 7 11 4 6 1018.4 - -
27/07:00pm 12.0 10.4 10.3 89 0.9 S 9 11 5 6 1018.5 - -
27/06:50pm 12.1 10.1 10.3 89 0.9 S 11 13 6 7 1018.4 - -
27/06:40pm 12.0 10.0 10.2 89 0.9 S 11 15 6 8 1018.4 - -
27/06:30pm 11.9 9.9 10.1 89 0.9 S 11 13 6 7 1018.3 - -
27/06:20pm 11.9 9.9 10.1 89 0.9 S 11 15 6 8 1018.3 - -
27/06:10pm 11.8 9.4 10.0 89 0.9 SSW 13 17 7 9 1018.3 - -
27/06:00pm 11.7 9.3 9.9 89 0.9 SSW 13 15 7 8 1018.3 - -
27/05:50pm 11.6 9.1 9.7 88 1.0 SSW 13 15 7 8 1018.3 - -
27/05:40pm 11.6 9.1 9.8 89 0.9 SSW 13 15 7 8 1018.2 - -
27/05:30pm 11.6 8.7 9.8 89 0.9 SSW 15 17 8 9 1018.2 - -
27/05:20pm 11.5 8.3 9.8 89 0.9 SSW 17 19 9 10 1018.1 - -
27/05:10pm 11.4 8.5 9.8 90 0.8 SSW 15 19 8 10 1018.0 - -
27/05:00pm 11.3 8.4 9.8 90 0.8 SSW 15 17 8 9 1017.9 - -
27/04:50pm 11.2 8.3 9.8 91 0.7 SSW 15 17 8 9 1017.8 - -
27/04:40pm 11.1 8.6 9.7 91 0.7 SSW 13 15 7 8 1017.7 - -
27/04:30pm 11.0 8.5 9.6 91 0.7 S 13 17 7 9 1017.7 - -
27/04:20pm 10.9 8.0 9.5 91 0.7 S 15 19 8 10 1017.7 - -
27/04:10pm 10.9 7.9 9.4 90 0.8 S 15 17 8 9 1017.7 - -
27/04:00pm 10.9 8.3 9.4 90 0.8 S 13 17 7 9 1017.7 - -
27/02:40pm 11.3 10.2 9.9 91 0.7 WSW 6 7 3 4 1017.3 - -
27/02:20pm 11.3 9.6 10.0 92 0.7 WSW 9 11 5 6 1017.2 - -
27/02:00pm 11.2 9.5 9.9 92 0.7 WSW 9 13 5 7 1017.4 - -
27/01:50pm 11.5 9.9 10.1 91 0.7 WSW 9 17 5 9 1017.5 - -
27/01:40pm 11.6 9.6 10.2 91 0.7 WSW 11 17 6 9 1017.4 - -
27/01:30pm 11.5 8.3 10.1 91 0.7 W 17 28 9 15 1017.2 - -
27/01:20pm 11.7 8.2 10.2 90 0.8 W 19 26 10 14 1017.2 - -
27/01:10pm 12.1 6.2 10.5 90 0.8 W 32 44 17 24 1016.9 - -
27/01:00pm 13.7 13.0 11.9 89 1.0 NNE 7 41 4 22 1017.0 - -
27/12:50pm 13.8 12.7 11.9 88 1.0 E 9 17 5 9 1016.9 - -
27/12:40pm 13.9 10.9 11.8 87 1.1 ESE 19 22 10 12 1016.8 - -
27/12:30pm 14.0 10.8 11.8 86 1.2 ESE 20 24 11 13 1016.9 - -
27/12:20pm 14.1 11.8 11.7 85 1.3 ESE 15 22 8 12 1017.0 - -
27/12:10pm 14.0 12.0 11.6 85 1.3 ESE 13 19 7 10 1017.2 - -
27/12:00pm 13.9 10.7 11.4 85 1.3 ESE 19 22 10 12 1017.2 - -
27/11:50am 13.9 10.5 11.4 85 1.3 E 20 24 11 13 1017.3 - -
27/11:40am 13.8 10.4 11.3 85 1.3 E 20 26 11 14 1017.4 - -
27/11:30am 13.8 10.6 11.4 85 1.3 E 19 22 10 12 1017.6 - -
27/11:20am 13.8 10.1 11.4 85 1.3 E 22 26 12 14 1017.7 - -
27/11:10am 13.9 10.2 11.5 85 1.3 E 22 26 12 14 1017.8 - -
27/11:00am 14.1 10.0 11.6 85 1.3 ESE 24 28 13 15 1017.8 - -
27/10:50am 14.1 10.8 11.6 85 1.3 ESE 20 24 11 13 1018.0 - -
27/10:40am 14.1 10.8 11.6 85 1.3 E 20 24 11 13 1018.2 - -
27/10:30am 14.1 10.8 11.5 84 1.4 ESE 20 26 11 14 1018.5 - -
27/10:20am 13.9 10.7 11.4 85 1.3 ESE 19 24 10 13 1018.7 - -
27/10:10am 13.8 10.6 11.2 84 1.4 SE 19 22 10 12 1018.8 - -
27/10:00am 13.8 11.0 11.2 84 1.4 SE 17 20 9 11 1019.0 - -
27/09:50am 13.8 10.6 11.2 84 1.4 ESE 19 24 10 13 1019.1 - -
27/09:40am 13.8 10.6 11.3 85 1.3 ESE 19 20 10 11 1019.3 - -
27/09:30am 13.7 10.3 11.3 85 1.3 ESE 20 22 11 12 1019.3 - -
27/09:20am 13.6 10.4 11.3 86 1.2 ESE 19 22 10 12 1019.5 - -
27/09:10am 13.5 9.7 11.3 86 1.2 ESE 22 24 12 13 1019.5 - -
27/09:00am 13.5 9.7 11.2 86 1.2 ESE 22 26 12 14 1019.6 - -
27/08:50am 13.6 9.4 11.2 85 1.3 ESE 24 26 13 14 1019.7 - -
27/08:40am 13.5 10.3 11.1 85 1.3 ESE 19 22 10 12 1019.7 - -
27/08:30am 13.5 10.3 11.2 86 1.2 ESE 19 22 10 12 1019.9 - -
27/08:20am 13.5 10.3 11.4 87 1.1 ESE 19 22 10 12 1019.9 - -
27/08:10am 13.5 10.7 11.4 87 1.1 E 17 20 9 11 1020.0 - -
27/08:00am 13.6 10.5 11.5 87 1.1 E 19 20 10 11 1020.1 - -
27/07:50am 13.6 10.8 11.5 87 1.1 E 17 20 9 11 1020.2 - -
27/07:40am 13.8 11.5 11.7 87 1.1 E 15 19 8 10 1020.3 - -
27/07:30am 13.9 11.6 11.8 87 1.1 E 15 19 8 10 1020.3 - -
27/07:20am 13.8 11.9 11.7 87 1.1 E 13 17 7 9 1020.4 - -
27/07:10am 13.7 10.6 11.6 87 1.1 E 19 22 10 12 1020.3 - -
27/07:00am 13.8 11.5 11.7 87 1.1 ENE 15 19 8 10 1020.3 - -
27/06:50am 13.8 11.5 11.7 87 1.1 E 15 19 8 10 1020.3 - -
27/06:40am 13.7 11.0 11.6 87 1.1 E 17 19 9 10 1020.2 - -
27/06:30am 13.7 10.9 11.5 86 1.2 E 17 20 9 11 1020.0 - -
27/06:20am 13.6 11.2 11.4 86 1.2 E 15 17 8 9 1019.9 - -
27/06:10am 13.6 11.2 11.5 87 1.1 E 15 17 8 9 1019.8 - -
27/06:00am 13.5 11.5 11.4 87 1.1 E 13 17 7 9 1019.8 - -
27/05:50am 13.5 11.4 11.3 86 1.2 E 13 15 7 8 1019.9 - -
27/05:40am 13.5 11.4 11.2 86 1.2 E 13 15 7 8 1020.0 - -
27/05:30am 13.5 11.8 11.2 86 1.2 ENE 11 13 6 7 1020.0 - -
27/05:20am 13.5 11.8 11.1 85 1.3 ENE 11 15 6 8 1020.0 - -
27/05:10am 13.5 11.4 11.1 85 1.3 ENE 13 17 7 9 1019.9 - -
27/05:00am 13.4 10.9 11.1 86 1.2 ENE 15 17 8 9 1019.8 - -
27/04:50am 13.4 10.9 11.2 86 1.2 ENE 15 19 8 10 1019.9 - -
27/04:40am 13.4 10.6 11.2 86 1.2 E 17 20 9 11 1019.8 - -
27/04:30am 13.3 10.8 11.2 87 1.1 E 15 17 8 9 1019.9 - -
27/04:20am 13.3 11.2 11.2 87 1.1 E 13 17 7 9 1019.9 - -
27/04:10am 13.4 11.7 11.3 87 1.1 ENE 11 13 6 7 1019.9 - -
27/04:00am 13.5 11.8 11.3 86 1.2 ENE 11 13 6 7 1019.9 - -
27/03:50am 13.5 11.8 11.3 86 1.2 ENE 11 13 6 7 1020.0 - -
27/03:40am 13.5 11.8 11.3 86 1.2 ENE 11 13 6 7 1020.1 - -
27/03:30am 13.5 11.5 11.4 87 1.1 ENE 13 15 7 8 1020.2 - -
27/03:20am 13.5 11.1 11.4 87 1.1 ENE 15 19 8 10 1020.3 - -
27/03:10am 13.5 11.9 11.6 88 1.0 ENE 11 15 6 8 1020.4 - -
27/03:00am 13.5 12.3 11.7 89 1.0 ENE 9 11 5 6 1020.5 - -
27/02:50am 13.5 12.4 11.9 90 0.9 ENE 9 13 5 7 1020.5 - -
27/02:40am 13.3 11.4 11.7 90 0.9 ENE 13 17 7 9 1020.6 - -
27/02:30am 13.3 11.0 11.7 90 0.9 ENE 15 17 8 9 1020.8 - -
27/02:20am 13.3 11.0 11.7 90 0.9 ENE 15 17 8 9 1020.8 - -
27/02:10am 13.3 10.2 11.6 89 0.9 ENE 19 20 10 11 1020.9 - -
27/02:00am 13.3 10.0 11.6 89 0.9 ENE 20 22 11 12 1021.0 - -
27/01:50am 13.3 10.0 11.5 89 1.0 ENE 20 24 11 13 1021.1 - -
27/01:40am 13.4 10.1 11.6 89 1.0 ENE 20 24 11 13 1021.2 - -
27/01:30am 13.4 9.7 11.4 88 1.1 E 22 24 12 13 1021.3 - -
27/01:20am 13.4 9.7 11.4 88 1.1 ENE 22 26 12 14 1021.4 - -
27/01:10am 13.4 9.3 11.3 87 1.1 ENE 24 26 13 14 1021.6 - -
27/01:00am 13.5 9.8 11.4 87 1.1 ENE 22 24 12 13 1021.8 - -
27/12:50am 13.5 9.8 11.4 87 1.1 ENE 22 24 12 13 1021.9 - -
27/12:40am 13.4 10.0 11.3 87 1.1 ENE 20 24 11 13 1022.0 - -
27/12:30am 13.4 10.2 11.4 88 1.1 E 19 20 10 11 1022.2 - -
27/12:20am 13.3 10.9 11.3 88 1.1 ENE 15 19 8 10 1022.4 - -
27/12:10am 13.2 10.7 11.2 88 1.1 ENE 15 19 8 10 1022.4 - -
27/12:00am 13.2 11.1 11.1 87 1.1 ENE 13 17 7 9 1022.6 - -
 
Date/Time
EST
Temp
°C
App
Temp
°C
Dew
Point
Rel
Hum
%
Delta-T
°C
Wind Press
QNH
hPa
Press
MSL
hPa
Rain
since 9 am
mm
Dir
 
Spd
km/h
Gust
km/h
Spd
kts
Gust
kts
26/11:50pm 13.2 11.1 11.1 87 1.1 ENE 13 17 7 9 1022.8 - -
26/11:30pm 13.3 10.8 11.2 87 1.1 ENE 15 19 8 10 1023.1 - -
26/11:20pm 13.4 11.0 11.3 87 1.1 ENE 15 19 8 10 1023.2 - -
26/11:10pm 13.3 10.8 11.2 87 1.1 ENE 15 19 8 10 1023.3 - -
26/11:00pm 13.4 11.3 11.2 86 1.2 ENE 13 19 7 10 1023.4 - -
26/10:50pm 13.3 10.8 11.0 86 1.2 NE 15 24 8 13 1023.5 - -
26/10:40pm 13.6 10.3 11.0 84 1.4 NE 19 24 10 13 1023.6 - -
26/10:30pm 13.8 10.3 10.8 82 1.6 NE 20 26 11 14 1023.7 - -
26/10:20pm 14.0 10.5 10.8 81 1.7 NE 20 26 11 14 1023.7 - -
26/10:10pm 14.0 9.7 10.9 81 1.6 ENE 24 28 13 15 1023.8 - -
26/10:00pm 14.1 10.2 10.9 81 1.7 ENE 22 28 12 15 1023.9 - -
26/09:50pm 14.2 10.3 10.8 80 1.8 ENE 22 26 12 14 1024.0 - -
26/09:40pm 14.2 10.3 10.8 80 1.8 ENE 22 28 12 15 1024.1 - -
26/09:30pm 14.2 10.6 10.7 79 1.8 ENE 20 26 11 14 1024.1 - -
26/09:20pm 14.2 9.9 10.6 79 1.9 ENE 24 28 13 15 1024.2 - -
26/09:10pm 14.1 9.4 10.5 79 1.9 ENE 26 30 14 16 1024.3 - -
26/09:00pm 14.2 9.8 10.4 78 2.0 ENE 24 30 13 16 1024.4 - -
26/08:50pm 14.2 9.5 10.5 78 1.9 ENE 26 32 14 17 1024.4 - -
26/08:40pm 14.3 10.0 10.6 78 1.9 ENE 24 30 13 16 1024.5 - -
26/08:30pm 14.1 9.3 10.4 78 1.9 ENE 26 32 14 17 1024.5 - -
26/08:20pm 14.1 9.4 10.5 79 1.9 ENE 26 32 14 17 1024.6 - -
26/08:10pm 14.0 9.3 10.5 79 1.8 ENE 26 30 14 16 1024.6 - -
26/08:00pm 13.9 8.8 10.5 80 1.8 ENE 28 32 15 17 1024.5 - -
26/07:50pm 13.9 8.8 10.5 80 1.8 ENE 28 32 15 17 1024.5 - -
26/07:40pm 13.9 8.4 10.4 79 1.8 ENE 30 33 16 18 1024.6 - -
26/07:30pm 13.9 8.3 10.2 78 1.9 ENE 30 33 16 18 1024.6 - -
26/07:20pm 13.9 8.3 10.1 78 2.0 ENE 30 33 16 18 1024.6 - -
26/07:10pm 14.0 8.4 10.0 77 2.1 ENE 30 33 16 18 1024.7 - -
26/07:00pm 14.0 7.9 9.9 76 2.1 ENE 32 35 17 19 1024.6 - -
26/06:50pm 14.1 8.0 9.9 76 2.2 ENE 32 37 17 20 1024.6 - -
26/06:40pm 14.1 8.0 9.8 75 2.2 ENE 32 35 17 19 1024.7 - -
26/06:30pm 14.0 7.9 9.8 76 2.2 ENE 32 37 17 20 1024.6 - -
26/06:20pm 14.0 7.9 9.9 76 2.1 ENE 32 35 17 19 1024.6 - -
26/06:10pm 13.9 7.7 9.9 77 2.1 ENE 33 37 18 20 1024.7 - -
26/06:00pm 14.0 7.8 9.9 76 2.1 ENE 33 39 18 21 1024.6 - -
26/05:50pm 14.0 7.7 9.7 75 2.2 ENE 33 39 18 21 1024.7 - -
26/05:40pm 14.0 7.9 9.7 75 2.2 ENE 32 37 17 20 1024.7 - -
26/05:30pm 14.0 8.2 9.5 74 2.3 ENE 30 35 16 19 1024.7 - -
26/05:20pm 13.9 7.7 9.3 74 2.3 ENE 32 37 17 20 1024.6 - -
26/05:10pm 13.9 7.7 9.3 74 2.3 ENE 32 35 17 19 1024.7 - -
26/05:00pm 13.9 8.0 9.2 73 2.4 ENE 30 33 16 18 1024.8 - -
26/04:50pm 13.9 8.0 9.1 73 2.4 ENE 30 33 16 18 1024.9 - -
26/04:40pm 13.9 8.0 9.0 72 2.5 ENE 30 32 16 17 1024.8 - -
26/04:30pm 13.9 8.3 8.9 72 2.5 ENE 28 32 15 17 1024.6 - -
26/04:20pm 13.8 8.2 8.9 72 2.5 ENE 28 32 15 17 1024.6 - -
26/04:10pm 13.8 8.6 8.8 72 2.5 ENE 26 32 14 17 1024.6 - -
26/04:00pm 13.8 8.6 8.8 72 2.5 ENE 26 32 14 17 1024.6 - -
26/03:50pm 13.7 8.1 8.6 71 2.6 ENE 28 32 15 17 1024.5 - -
26/03:40pm 13.6 7.6 8.5 71 2.6 ENE 30 32 16 17 1024.4 - -
26/03:30pm 13.7 7.7 8.6 71 2.6 ENE 30 33 16 18 1024.4 - -
26/03:20pm 13.8 8.6 8.7 71 2.6 ENE 26 30 14 16 1024.4 - -
26/03:10pm 13.8 8.2 8.7 71 2.6 ENE 28 32 15 17 1024.4 - -
26/03:00pm 13.7 7.7 8.5 71 2.6 ENE 30 33 16 18 1024.5 - -
26/02:50pm 13.8 7.7 8.4 70 2.7 ENE 30 33 16 18 1024.5 - -
26/02:40pm 13.8 7.7 8.2 69 2.8 E 30 33 16 18 1024.5 - -
26/02:30pm 13.9 7.8 8.2 68 2.8 ENE 30 33 16 18 1024.5 - -
26/02:20pm 13.9 7.8 8.2 68 2.8 ENE 30 35 16 19 1024.5 - -
26/02:10pm 13.8 7.7 8.2 69 2.8 ENE 30 33 16 18 1024.6 - -
26/02:00pm 13.9 7.8 8.3 69 2.8 ENE 30 35 16 19 1024.6 - -
26/01:50pm 13.8 7.7 8.3 69 2.7 ENE 30 33 16 18 1024.8 - -
26/01:40pm 13.8 8.1 8.4 70 2.7 ENE 28 33 15 18 1024.8 - -
26/01:30pm 13.8 8.5 8.4 70 2.7 ENE 26 33 14 18 1025.0 - -
26/01:20pm 13.8 8.1 8.3 69 2.7 E 28 32 15 17 1025.0 - -
26/01:10pm 13.9 8.5 8.2 68 2.8 E 26 30 14 16 1025.2 - -
26/01:00pm 14.0 8.5 7.7 66 3.1 ENE 26 30 14 16 1025.4 - -
26/12:50pm 14.2 9.0 7.2 63 3.4 ENE 24 30 13 16 1025.5 - -
26/12:40pm 14.1 8.7 6.5 60 3.7 ENE 24 30 13 16 1025.2 - -
26/12:30pm 14.1 8.3 6.1 58 3.8 ENE 26 32 14 17 1025.4 - -
26/12:20pm 14.0 8.2 6.2 59 3.7 ENE 26 30 14 16 1025.6 - -
26/12:10pm 14.0 8.2 6.1 59 3.8 ENE 26 30 14 16 1025.9 - -
26/12:00pm 14.0 7.8 6.0 58 3.8 ENE 28 33 15 18 1025.9 - -
26/11:50am 14.0 7.7 5.9 58 3.9 ENE 28 32 15 17 1026.1 - -
26/11:40am 14.0 7.3 5.8 57 3.9 ENE 30 35 16 19 1026.2 - -
26/11:30am 13.9 7.3 6.1 59 3.7 ENE 30 33 16 18 1026.2 - -
26/11:20am 13.9 7.9 7.0 63 3.4 ENE 28 35 15 19 1026.3 - -
26/11:10am 13.8 7.9 7.4 65 3.1 ENE 28 33 15 18 1026.2 - -
26/11:00am 13.8 7.9 7.5 66 3.1 ENE 28 32 15 17 1026.4 - -
26/10:50am 13.7 8.2 7.6 66 3.0 ENE 26 33 14 18 1026.7 - -
26/10:40am 13.7 8.2 7.7 67 3.0 ENE 26 30 14 16 1027.0 - -
26/10:30am 13.6 8.2 7.8 68 2.9 ENE 26 33 14 18 1027.1 - -
26/10:20am 13.7 7.9 8.0 68 2.8 E 28 33 15 18 1027.2 - -
26/10:10am 13.7 8.2 7.7 67 3.0 E 26 33 14 18 1027.4 - -
26/10:00am 13.6 8.1 7.5 66 3.0 ENE 26 33 14 18 1027.5 - -
26/09:50am 13.7 8.9 7.4 65 3.1 E 22 30 12 16 1027.6 - -
26/09:40am 13.7 9.5 7.3 65 3.1 E 19 28 10 15 1027.5 - -
26/09:30am 13.6 9.3 6.9 64 3.2 E 19 26 10 14 1027.6 - -
26/09:20am 13.4 8.8 6.3 62 3.4 E 20 24 11 13 1027.6 - -
26/09:10am 13.4 8.8 5.7 59 3.6 E 19 24 10 13 1027.7 - -
26/08:50am 13.3 8.2 6.2 62 3.4 E 22 28 12 15 1027.8 - -
26/08:40am 13.0 8.2 7.2 68 2.8 E 22 30 12 16 1027.9 - -
26/08:30am 12.9 8.1 7.2 68 2.8 E 22 32 12 17 1027.8 - -
26/08:20am 13.1 7.8 7.0 66 3.0 E 24 30 13 16 1027.9 - -
26/08:10am 13.1 7.4 6.7 65 3.1 E 26 32 14 17 1027.7 - -
26/08:00am 13.2 7.6 7.0 66 3.0 E 26 33 14 18 1027.7 - -
26/07:50am 13.5 8.1 6.4 62 3.4 E 24 30 13 16 1027.7 - -
26/07:40am 13.8 8.2 5.6 57 3.9 E 24 30 13 16 1027.7 - -
26/07:30am 13.9 8.3 3.6 50 4.7 ENE 22 32 12 17 1027.7 - -
26/07:20am 13.5 7.6 5.9 60 3.6 ENE 26 32 14 17 1027.8 - -
26/07:10am 13.3 6.6 5.8 60 3.5 ENE 30 37 16 20 1027.7 - -
26/07:00am 13.6 7.2 5.1 56 4.0 ENE 28 35 15 19 1027.8 - -
26/06:50am 13.4 6.4 6.1 61 3.5 ENE 32 37 17 20 1027.6 - -
26/06:40am 13.7 7.4 3.7 51 4.5 ENE 26 37 14 20 1027.7 - -
26/06:30am 13.6 7.4 2.4 46 4.9 E 24 28 13 15 1027.6 - -
26/06:20am 13.6 7.5 2.5 47 4.9 E 24 32 13 17 1027.5 - -
26/06:10am 13.5 7.3 2.2 46 4.9 ENE 24 30 13 16 1027.4 - -
26/06:00am 13.4 8.6 2.4 47 4.8 ENE 17 22 9 12 1027.4 - -
26/05:50am 13.4 8.1 2.0 46 5.0 ENE 19 26 10 14 1027.4 - -
26/05:40am 13.2 8.1 3.0 50 4.5 ENE 19 32 10 17 1027.3 - -
26/05:30am 13.2 8.5 3.1 50 4.5 ENE 17 26 9 14 1027.1 - -
26/05:20am 13.3 8.0 2.9 49 4.6 ENE 20 28 11 15 1027.0 - -
26/05:10am 13.2 7.1 2.7 49 4.6 E 24 33 13 18 1027.1 - -
26/05:00am 13.1 7.1 3.2 51 4.4 E 24 33 13 18 1027.2 - -
26/04:50am 13.1 6.7 3.3 51 4.4 E 26 32 14 17 1027.2 - -
26/04:40am 13.2 8.1 2.8 49 4.6 ENE 19 30 10 16 1027.2 - -
26/04:30am 13.2 7.9 1.9 46 4.9 ENE 19 24 10 13 1027.2 - -
26/04:20am 13.2 7.0 2.1 47 4.8 ENE 24 33 13 18 1027.3 - -
26/04:10am 13.1 6.9 1.9 46 4.8 E 24 32 13 17 1027.3 - -
26/04:00am 13.1 7.2 1.7 46 4.9 ENE 22 32 12 17 1027.2 - -
26/03:50am 13.0 7.1 1.7 46 4.9 E 22 28 12 15 1027.1 - -
26/03:40am 13.0 6.0 1.7 46 4.9 ENE 28 41 15 22 1027.2 - -
26/03:30am 13.0 6.5 2.4 48 4.6 ENE 26 33 14 18 1027.3 - -
26/03:20am 13.0 6.8 2.4 48 4.6 ENE 24 30 13 16 1027.3 - -
26/03:10am 13.0 7.7 2.8 50 4.5 ENE 20 32 11 17 1027.2 - -
26/03:00am 13.0 7.6 2.4 48 4.6 ENE 20 28 11 15 1027.1 - -
26/02:50am 13.0 7.5 1.9 47 4.8 ENE 20 32 11 17 1027.0 - -
26/02:40am 13.0 6.4 1.8 46 4.8 ENE 26 41 14 22 1026.9 - -
26/02:30am 12.9 6.8 2.9 50 4.4 E 24 39 13 21 1026.9 - -
26/02:20am 12.9 7.6 2.8 50 4.5 E 20 26 11 14 1026.9 - -
26/02:10am 12.9 6.7 2.3 48 4.6 E 24 33 13 18 1027.1 - -
26/02:00am 12.9 6.0 2.5 49 4.6 E 28 33 15 18 1027.0 - -
26/01:50am 12.9 6.5 3.3 52 4.3 E 26 30 14 16 1027.0 - -
26/01:40am 12.8 6.8 3.4 53 4.2 E 24 30 13 16 1027.0 - -
26/01:30am 12.8 6.1 3.9 54 4.0 E 28 32 15 17 1027.0 - -
26/01:20am 12.8 6.2 4.4 56 3.8 E 28 33 15 18 1027.3 - -
26/01:10am 12.8 6.2 4.4 56 3.8 ENE 28 35 15 19 1027.5 - -
26/01:00am 12.8 6.3 4.5 57 3.8 E 28 32 15 17 1027.6 - -
26/12:50am 12.8 6.2 4.1 55 3.9 ENE 28 37 15 20 1027.6 - -
26/12:40am 12.7 7.0 4.7 58 3.7 E 24 32 13 17 1027.6 - -
26/12:30am 12.7 6.6 4.6 58 3.7 E 26 32 14 17 1027.6 - -
26/12:20am 12.7 6.2 4.7 58 3.7 E 28 33 15 18 1027.7 - -
26/12:10am 12.8 6.5 3.9 54 4.0 E 26 33 14 18 1028.0 - -
26/12:00am 12.8 7.3 3.9 54 4.0 E 22 32 12 17 1028.0 - -
 
Date/Time
EST
Temp
°C
App
Temp
°C
Dew
Point
Rel
Hum
%
Delta-T
°C
Wind Press
QNH
hPa
Press
MSL
hPa
Rain
since 9 am
mm
Dir
 
Spd
km/h
Gust
km/h
Spd
kts
Gust
kts
25/11:50pm 12.8 6.5 3.9 54 4.0 E 26 33 14 18 1027.9 - -
25/11:40pm 12.8 6.2 4.0 55 4.0 E 28 35 15 19 1028.2 - -
25/11:30pm 12.8 6.5 3.7 54 4.1 E 26 32 14 17 1028.2 - -
25/11:20pm 12.8 6.6 4.1 55 3.9 E 26 32 14 17 1028.2 - -
25/11:10pm 12.7 7.3 4.3 56 3.8 E 22 32 12 17 1028.3 - -
25/11:00pm 12.7 7.8 4.9 59 3.6 E 20 26 11 14 1028.3 - -
25/10:50pm 12.7 7.6 4.1 56 3.9 E 20 30 11 16 1028.4 - -
25/10:40pm 12.7 7.1 3.5 53 4.1 ENE 22 28 12 15 1028.4 - -
25/10:30pm 12.7 7.2 4.0 55 3.9 E 22 26 12 14 1028.4 - -
25/10:20pm 12.7 7.0 2.6 50 4.4 E 22 28 12 15 1028.5 - -
25/10:10pm 12.7 6.4 3.8 54 4.0 E 26 32 14 17 1028.2 - -
25/10:00pm 12.7 6.4 3.9 55 4.0 E 26 32 14 17 1028.3 - -
25/09:50pm 12.8 5.7 3.3 52 4.2 E 30 37 16 20 1028.5 - -
25/09:40pm 12.7 7.6 4.0 55 3.9 E 20 33 11 18 1028.6 - -
25/09:30pm 12.6 7.3 5.1 60 3.5 E 22 28 12 15 1028.5 - -
25/09:20pm 12.8 7.0 4.6 57 3.8 E 24 30 13 16 1028.4 - -
25/09:10pm 12.9 6.7 2.2 48 4.7 ENE 24 32 13 17 1028.4 - -
25/09:00pm 12.8 5.1 2.2 48 4.6 E 32 39 17 21 1028.4 - -
25/08:50pm 12.6 5.9 3.9 55 3.9 E 28 37 15 20 1028.4 - -
25/08:40pm 12.6 5.6 4.3 57 3.8 E 30 35 16 19 1028.3 - -
25/08:30pm 12.6 5.7 4.4 57 3.7 E 30 37 16 20 1028.5 - -
25/08:20pm 12.7 6.5 4.4 57 3.8 E 26 33 14 18 1028.4 - -
25/08:10pm 12.7 7.1 3.5 53 4.1 E 22 32 12 17 1028.4 - -
25/08:00pm 12.7 7.2 4.1 56 3.9 E 22 32 12 17 1028.2 - -
25/07:50pm 12.6 7.2 4.3 57 3.8 E 22 32 12 17 1028.1 - -
25/07:40pm 12.8 6.5 3.7 54 4.1 E 26 35 14 19 1028.1 - -
25/07:30pm 12.6 6.9 3.1 52 4.2 E 22 28 12 15 1028.2 - -
25/07:20pm 12.6 6.7 3.8 55 4.0 E 24 33 13 18 1028.1 - -
25/07:10pm 12.7 6.7 3.1 52 4.3 E 24 33 13 18 1028.1 - -
25/07:00pm 12.6 6.9 2.6 50 4.4 E 22 32 12 17 1027.9 - -
25/06:50pm 12.6 6.0 2.1 49 4.5 E 26 39 14 21 1027.8 - -
25/06:40pm 12.6 5.4 3.0 52 4.2 E 30 41 16 22 1028.0 - -
25/06:30pm 12.6 6.1 2.8 51 4.3 E 26 33 14 18 1027.9 - -
25/06:20pm 12.5 6.3 2.1 49 4.5 E 24 33 13 18 1027.9 - -
25/06:10pm 12.5 5.9 1.8 48 4.6 E 26 37 14 20 1027.8 - -
25/06:00pm 12.6 6.0 2.1 49 4.5 E 26 37 14 20 1027.6 - -
25/05:50pm 12.7 5.7 2.2 49 4.6 E 28 35 15 19 1027.6 - -
25/05:30pm 12.6 5.6 1.9 48 4.6 E 28 35 15 19 1027.3 - -
25/05:20pm 12.6 6.1 2.4 50 4.4 E 26 37 14 20 1027.2 - -
25/05:10pm 12.6 6.1 2.7 51 4.3 E 26 32 14 17 1027.3 - -
25/05:00pm 12.6 5.7 2.6 50 4.4 E 28 33 15 18 1027.0 - -
25/04:50pm 12.6 5.4 2.9 51 4.3 E 30 35 16 19 1026.9 - -
25/04:40pm 12.6 5.9 3.4 53 4.1 E 28 33 15 18 1026.8 - -
25/04:30pm 12.6 5.8 3.2 52 4.2 E 28 33 15 18 1026.6 - -
25/04:20pm 12.6 6.5 2.7 51 4.3 E 24 33 13 18 1026.6 - -
25/04:10pm 12.5 5.7 2.9 52 4.2 E 28 33 15 18 1026.5 - -
25/04:00pm 12.5 4.9 3.1 52 4.2 E 32 39 17 21 1026.2 - -
25/03:50pm 12.5 5.4 3.3 53 4.1 E 30 35 16 19 1025.9 - -
25/03:40pm 12.5 6.2 3.8 55 3.9 E 26 33 14 18 1025.8 - -
25/03:30pm 12.5 5.8 3.5 54 4.0 E 28 35 15 19 1025.9 - -
25/03:20pm 12.5 6.2 3.6 54 4.0 E 26 35 14 19 1026.0 - -
25/03:10pm 12.5 5.7 3.2 53 4.1 E 28 35 15 19 1025.9 - -
25/03:00pm 12.5 5.7 3.3 53 4.1 E 28 35 15 19 1025.6 - -
25/02:50pm 12.6 5.9 3.5 54 4.1 E 28 35 15 19 1025.5 - -
25/02:40pm 12.6 5.4 3.0 52 4.2 E 30 35 16 19 1025.5 - -
25/02:30pm 12.6 5.9 3.4 53 4.1 E 28 35 15 19 1025.4 - -
25/02:20pm 12.6 5.2 4.0 56 3.9 E 32 37 17 20 1025.5 - -
25/02:10pm 12.7 5.8 4.8 58 3.6 E 30 37 16 20 1025.8 - -
25/02:00pm 12.8 6.7 4.9 58 3.6 E 26 33 14 18 1025.8 - -
25/01:50pm 12.9 6.5 5.0 58 3.7 E 28 35 15 19 1025.6 - -
25/01:40pm 12.8 6.8 5.2 60 3.5 ENE 26 30 14 16 1025.6 - -
25/01:30pm 12.8 7.5 5.0 59 3.6 E 22 30 12 16 1025.9 - -
25/01:20pm 12.8 7.1 5.0 59 3.6 E 24 32 13 17 1025.8 - -
25/01:10pm 12.7 7.4 5.0 59 3.6 E 22 30 12 16 1025.8 - -
25/01:00pm 12.6 6.7 4.1 56 3.8 E 24 32 13 17 1025.7 - -
25/12:50pm 12.6 7.0 3.5 54 4.1 E 22 30 12 16 1025.8 - -
25/12:40pm 12.6 6.6 3.5 54 4.1 E 24 33 13 18 1025.9 - -
25/12:30pm 12.6 7.4 3.7 54 4.0 E 20 28 11 15 1025.9 - -
25/12:20pm 12.6 6.2 3.3 53 4.1 E 26 33 14 18 1025.9 - -
25/12:10pm 12.5 6.5 3.4 54 4.1 E 24 30 13 16 1026.1 - -
25/12:00pm 12.6 6.2 3.2 52 4.2 E 26 32 14 17 1026.1 - -
25/11:50am 12.5 5.7 3.2 53 4.1 E 28 32 15 17 1026.1 - -
25/11:40am 12.5 5.4 3.7 55 3.9 E 30 35 16 19 1026.2 - -
25/11:30am 12.6 5.9 3.8 55 4.0 E 28 33 15 18 1026.3 - -
25/11:20am 12.5 5.8 3.6 54 4.0 E 28 33 15 18 1026.3 - -
25/11:10am 12.6 6.4 4.5 58 3.7 E 26 33 14 18 1026.4 - -
25/11:00am 12.5 5.5 4.3 57 3.7 E 30 37 16 20 1026.5 - -
25/10:50am 12.5 5.2 4.3 57 3.7 E 32 41 17 22 1026.5 - -
25/10:40am 12.6 5.7 4.8 59 3.6 E 30 37 16 20 1026.6 - -
25/10:30am 12.5 5.0 4.6 58 3.6 E 33 39 18 21 1026.6 - -
25/10:20am 12.6 5.7 4.8 59 3.6 E 30 37 16 20 1026.7 - -
25/10:10am 12.7 6.0 3.8 54 4.0 E 28 35 15 19 1026.8 - -
25/10:00am 12.6 5.1 3.3 53 4.1 E 32 37 17 20 1026.8 - -
25/09:50am 12.6 5.0 4.1 56 3.8 ENE 33 43 18 23 1026.8 - -
25/09:40am 12.6 5.7 4.7 58 3.6 E 30 39 16 21 1026.8 - -
25/09:30am 12.4 5.6 5.1 61 3.4 E 30 37 16 20 1026.8 - -
25/09:20am 12.3 4.5 5.0 61 3.4 E 35 43 19 23 1026.7 - -
25/09:10am 12.4 5.0 5.0 60 3.4 E 33 39 18 21 1026.7 - -
25/09:00am 12.5 5.3 4.9 60 3.5 E 32 39 17 21 1026.7 - -
25/08:50am 12.6 5.7 4.6 58 3.7 E 30 39 16 21 1026.6 - -
25/08:40am 12.6 5.3 4.4 57 3.7 E 32 39 17 21 1026.4 - -
25/08:30am 12.5 5.0 4.3 57 3.7 E 33 41 18 22 1026.3 - -
25/08:20am 12.4 4.9 4.5 58 3.6 E 33 43 18 23 1026.3 - -
25/08:10am 12.5 4.2 4.4 58 3.7 E 37 43 20 23 1026.2 - -
25/08:00am 12.5 4.2 4.2 57 3.8 E 37 44 20 24 1026.2 - -
25/07:50am 12.4 4.1 4.2 57 3.7 E 37 44 20 24 1026.1 - -
25/07:40am 12.3 4.5 4.8 60 3.4 E 35 44 19 24 1026.0 - -
25/07:30am 12.3 4.5 4.8 60 3.4 E 35 46 19 25 1025.9 - -
25/07:20am 12.4 5.0 5.1 61 3.4 E 33 43 18 23 1025.8 - -
25/07:10am 12.3 4.1 4.7 60 3.5 E 37 44 20 24 1025.8 - -
25/07:00am 12.4 5.0 5.0 60 3.4 E 33 41 18 22 1025.6 - -
25/06:50am 12.3 4.5 5.0 61 3.4 E 35 43 19 23 1025.5 - -
25/06:40am 12.3 4.9 4.9 60 3.4 E 33 43 18 23 1025.3 - -

Other Formats:

Comma delimited format used in spreadsheet applications
http://www.bom.gov.au/fwo/IDV60801/IDV60801.55039.axf

JavaScript Object Notation format (JSON) in row-major order
http://www.bom.gov.au/fwo/IDV60801/IDV60801.55039.json